sensor_id;sensor_type;location;lat;lon;timestamp;P1;durP1;ratioP1;P2;durP2;ratioP2
38615;SDS011;24370;51.986;4.666;2023-02-13T00:00:30;45.13;;;20.23;;
38615;SDS011;24370;51.986;4.666;2023-02-13T00:02:56;46.57;;;21.53;;
38615;SDS011;24370;51.986;4.666;2023-02-13T00:05:22;44.33;;;20.77;;
38615;SDS011;24370;51.986;4.666;2023-02-13T00:07:47;47.93;;;22.43;;
38615;SDS011;24370;51.986;4.666;2023-02-13T00:10:12;51.20;;;22.47;;
38615;SDS011;24370;51.986;4.666;2023-02-13T00:12:38;47.00;;;21.80;;
38615;SDS011;24370;51.986;4.666;2023-02-13T00:15:03;46.83;;;21.33;;
38615;SDS011;24370;51.986;4.666;2023-02-13T00:17:29;47.90;;;21.57;;
38615;SDS011;24370;51.986;4.666;2023-02-13T00:19:56;43.50;;;20.47;;
38615;SDS011;24370;51.986;4.666;2023-02-13T00:22:22;48.10;;;20.90;;
38615;SDS011;24370;51.986;4.666;2023-02-13T00:24:48;48.90;;;21.93;;
38615;SDS011;24370;51.986;4.666;2023-02-13T00:27:13;47.80;;;22.03;;
38615;SDS011;24370;51.986;4.666;2023-02-13T00:29:39;49.40;;;20.90;;
38615;SDS011;24370;51.986;4.666;2023-02-13T00:32:04;51.77;;;22.90;;
38615;SDS011;24370;51.986;4.666;2023-02-13T00:34:30;46.47;;;21.03;;
38615;SDS011;24370;51.986;4.666;2023-02-13T00:36:55;45.93;;;20.97;;
38615;SDS011;24370;51.986;4.666;2023-02-13T00:39:20;43.07;;;20.67;;
38615;SDS011;24370;51.986;4.666;2023-02-13T00:41:46;44.07;;;20.57;;
38615;SDS011;24370;51.986;4.666;2023-02-13T00:44:11;51.77;;;22.23;;
38615;SDS011;24370;51.986;4.666;2023-02-13T00:46:36;50.57;;;22.33;;
38615;SDS011;24370;51.986;4.666;2023-02-13T00:49:03;46.53;;;19.93;;
38615;SDS011;24370;51.986;4.666;2023-02-13T00:51:29;49.70;;;20.55;;
38615;SDS011;24370;51.986;4.666;2023-02-13T00:53:54;45.33;;;21.80;;
38615;SDS011;24370;51.986;4.666;2023-02-13T00:56:19;45.03;;;21.80;;
38615;SDS011;24370;51.986;4.666;2023-02-13T00:58:45;49.63;;;21.40;;
38615;SDS011;24370;51.986;4.666;2023-02-13T01:01:10;50.30;;;21.37;;
38615;SDS011;24370;51.986;4.666;2023-02-13T01:03:36;45.30;;;20.97;;
38615;SDS011;24370;51.986;4.666;2023-02-13T01:06:02;48.60;;;21.90;;
38615;SDS011;24370;51.986;4.666;2023-02-13T01:08:27;48.43;;;20.97;;
38615;SDS011;24370;51.986;4.666;2023-02-13T01:10:53;44.97;;;19.70;;
38615;SDS011;24370;51.986;4.666;2023-02-13T01:13:19;46.80;;;20.73;;
38615;SDS011;24370;51.986;4.666;2023-02-13T01:15:46;43.30;;;21.07;;
38615;SDS011;24370;51.986;4.666;2023-02-13T01:18:13;44.47;;;21.00;;
38615;SDS011;24370;51.986;4.666;2023-02-13T01:20:40;47.33;;;21.40;;
38615;SDS011;24370;51.986;4.666;2023-02-13T01:23:06;43.20;;;19.53;;
38615;SDS011;24370;51.986;4.666;2023-02-13T01:25:31;46.13;;;21.13;;
38615;SDS011;24370;51.986;4.666;2023-02-13T01:27:57;47.80;;;21.20;;
38615;SDS011;24370;51.986;4.666;2023-02-13T01:30:22;43.57;;;21.17;;
38615;SDS011;24370;51.986;4.666;2023-02-13T01:32:47;41.00;;;19.90;;
38615;SDS011;24370;51.986;4.666;2023-02-13T01:35:13;44.07;;;21.63;;
38615;SDS011;24370;51.986;4.666;2023-02-13T01:37:39;42.33;;;20.77;;
38615;SDS011;24370;51.986;4.666;2023-02-13T01:40:06;48.03;;;22.07;;
38615;SDS011;24370;51.986;4.666;2023-02-13T01:42:33;48.47;;;21.70;;
38615;SDS011;24370;51.986;4.666;2023-02-13T01:48:04;49.93;;;22.33;;
38615;SDS011;24370;51.986;4.666;2023-02-13T01:50:36;46.87;;;20.40;;
38615;SDS011;24370;51.986;4.666;2023-02-13T01:53:21;46.57;;;21.47;;
38615;SDS011;24370;51.986;4.666;2023-02-13T01:55:52;44.17;;;20.73;;
38615;SDS011;24370;51.986;4.666;2023-02-13T01:58:21;45.23;;;20.57;;
38615;SDS011;24370;51.986;4.666;2023-02-13T02:00:50;46.67;;;22.10;;
38615;SDS011;24370;51.986;4.666;2023-02-13T02:03:20;44.43;;;20.50;;
38615;SDS011;24370;51.986;4.666;2023-02-13T02:05:51;42.93;;;20.03;;
38615;SDS011;24370;51.986;4.666;2023-02-13T02:08:20;44.23;;;20.17;;
38615;SDS011;24370;51.986;4.666;2023-02-13T02:10:46;47.80;;;22.00;;
38615;SDS011;24370;51.986;4.666;2023-02-13T02:13:13;44.27;;;21.57;;
38615;SDS011;24370;51.986;4.666;2023-02-13T02:15:44;44.40;;;20.60;;
38615;SDS011;24370;51.986;4.666;2023-02-13T02:18:19;46.40;;;20.97;;
38615;SDS011;24370;51.986;4.666;2023-02-13T02:29:13;42.37;;;19.53;;
38615;SDS011;24370;51.986;4.666;2023-02-13T02:40:32;49.17;;;22.30;;
38615;SDS011;24370;51.986;4.666;2023-02-13T02:43:28;46.50;;;20.80;;
38615;SDS011;24370;51.986;4.666;2023-02-13T02:49:11;45.27;;;21.23;;
38615;SDS011;24370;51.986;4.666;2023-02-13T02:52:06;50.00;;;20.77;;
38615;SDS011;24370;51.986;4.666;2023-02-13T02:54:47;49.97;;;23.33;;
38615;SDS011;24370;51.986;4.666;2023-02-13T02:57:38;44.67;;;20.90;;
38615;SDS011;24370;51.986;4.666;2023-02-13T03:00:39;45.90;;;20.97;;
38615;SDS011;24370;51.986;4.666;2023-02-13T03:03:25;46.33;;;21.00;;
38615;SDS011;24370;51.986;4.666;2023-02-13T03:06:14;46.67;;;21.23;;
38615;SDS011;24370;51.986;4.666;2023-02-13T03:08:44;42.70;;;20.60;;
38615;SDS011;24370;51.986;4.666;2023-02-13T03:11:36;43.75;;;20.13;;
38615;SDS011;24370;51.986;4.666;2023-02-13T03:14:21;46.63;;;20.67;;
38615;SDS011;24370;51.986;4.666;2023-02-13T03:16:51;45.37;;;20.47;;
38615;SDS011;24370;51.986;4.666;2023-02-13T03:29:03;43.93;;;19.97;;
38615;SDS011;24370;51.986;4.666;2023-02-13T03:34:31;40.90;;;18.70;;
38615;SDS011;24370;51.986;4.666;2023-02-13T03:37:31;41.13;;;19.07;;
38615;SDS011;24370;51.986;4.666;2023-02-13T03:43:10;44.47;;;19.97;;
38615;SDS011;24370;51.986;4.666;2023-02-13T03:45:40;43.30;;;18.50;;
38615;SDS011;24370;51.986;4.666;2023-02-13T03:48:20;42.40;;;19.70;;
38615;SDS011;24370;51.986;4.666;2023-02-13T03:51:11;39.43;;;18.17;;
38615;SDS011;24370;51.986;4.666;2023-02-13T03:53:41;41.10;;;19.23;;
38615;SDS011;24370;51.986;4.666;2023-02-13T03:56:10;43.33;;;20.67;;
38615;SDS011;24370;51.986;4.666;2023-02-13T03:58:58;44.20;;;19.53;;
38615;SDS011;24370;51.986;4.666;2023-02-13T04:01:49;42.97;;;19.20;;
38615;SDS011;24370;51.986;4.666;2023-02-13T04:04:27;39.70;;;18.13;;
38615;SDS011;24370;51.986;4.666;2023-02-13T04:07:07;53.80;;;20.13;;
38615;SDS011;24370;51.986;4.666;2023-02-13T04:09:53;42.87;;;18.70;;
38615;SDS011;24370;51.986;4.666;2023-02-13T04:12:37;39.73;;;18.10;;
38615;SDS011;24370;51.986;4.666;2023-02-13T04:17:40;42.10;;;19.30;;
38615;SDS011;24370;51.986;4.666;2023-02-13T04:20:11;44.53;;;19.38;;
38615;SDS011;24370;51.986;4.666;2023-02-13T04:22:46;41.83;;;18.23;;
38615;SDS011;24370;51.986;4.666;2023-02-13T04:25:12;38.93;;;17.47;;
38615;SDS011;24370;51.986;4.666;2023-02-13T04:27:40;42.77;;;18.63;;
38615;SDS011;24370;51.986;4.666;2023-02-13T04:30:06;39.47;;;17.63;;
38615;SDS011;24370;51.986;4.666;2023-02-13T04:32:33;41.40;;;18.83;;
38615;SDS011;24370;51.986;4.666;2023-02-13T04:34:58;43.33;;;18.33;;
38615;SDS011;24370;51.986;4.666;2023-02-13T04:37:24;41.50;;;18.77;;
38615;SDS011;24370;51.986;4.666;2023-02-13T04:39:49;46.17;;;19.03;;
38615;SDS011;24370;51.986;4.666;2023-02-13T04:42:14;41.50;;;18.17;;
38615;SDS011;24370;51.986;4.666;2023-02-13T04:44:40;36.77;;;18.33;;
38615;SDS011;24370;51.986;4.666;2023-02-13T04:47:05;39.80;;;17.27;;
38615;SDS011;24370;51.986;4.666;2023-02-13T04:49:31;40.60;;;18.37;;
38615;SDS011;24370;51.986;4.666;2023-02-13T04:51:56;40.73;;;17.40;;
38615;SDS011;24370;51.986;4.666;2023-02-13T04:54:21;42.60;;;18.90;;
38615;SDS011;24370;51.986;4.666;2023-02-13T04:56:47;40.93;;;18.47;;
38615;SDS011;24370;51.986;4.666;2023-02-13T04:59:12;42.03;;;18.57;;
38615;SDS011;24370;51.986;4.666;2023-02-13T05:01:38;37.87;;;17.07;;
38615;SDS011;24370;51.986;4.666;2023-02-13T05:04:03;41.20;;;18.13;;
38615;SDS011;24370;51.986;4.666;2023-02-13T05:06:28;41.23;;;17.97;;
38615;SDS011;24370;51.986;4.666;2023-02-13T05:08:54;46.03;;;17.67;;
38615;SDS011;24370;51.986;4.666;2023-02-13T05:11:19;43.10;;;19.13;;
38615;SDS011;24370;51.986;4.666;2023-02-13T05:13:44;40.93;;;18.20;;
38615;SDS011;24370;51.986;4.666;2023-02-13T05:16:10;44.10;;;19.23;;
38615;SDS011;24370;51.986;4.666;2023-02-13T05:18:35;44.03;;;18.13;;
38615;SDS011;24370;51.986;4.666;2023-02-13T05:21:00;45.63;;;18.53;;
38615;SDS011;24370;51.986;4.666;2023-02-13T05:23:44;43.47;;;18.80;;
38615;SDS011;24370;51.986;4.666;2023-02-13T05:26:10;42.87;;;19.03;;
38615;SDS011;24370;51.986;4.666;2023-02-13T05:28:35;40.93;;;18.33;;
38615;SDS011;24370;51.986;4.666;2023-02-13T05:31:19;40.47;;;18.83;;
38615;SDS011;24370;51.986;4.666;2023-02-13T05:33:44;43.93;;;18.77;;
38615;SDS011;24370;51.986;4.666;2023-02-13T05:36:10;42.77;;;18.10;;
38615;SDS011;24370;51.986;4.666;2023-02-13T05:38:35;46.70;;;19.73;;
38615;SDS011;24370;51.986;4.666;2023-02-13T05:41:00;42.97;;;19.13;;
38615;SDS011;24370;51.986;4.666;2023-02-13T05:43:26;46.50;;;19.23;;
38615;SDS011;24370;51.986;4.666;2023-02-13T05:46:02;43.20;;;18.27;;
38615;SDS011;24370;51.986;4.666;2023-02-13T05:48:29;46.73;;;20.17;;
38615;SDS011;24370;51.986;4.666;2023-02-13T05:50:55;43.33;;;19.27;;
38615;SDS011;24370;51.986;4.666;2023-02-13T05:53:20;40.40;;;18.13;;
38615;SDS011;24370;51.986;4.666;2023-02-13T05:55:45;43.97;;;19.00;;
38615;SDS011;24370;51.986;4.666;2023-02-13T05:58:11;45.30;;;19.73;;
38615;SDS011;24370;51.986;4.666;2023-02-13T06:00:36;51.80;;;19.67;;
38615;SDS011;24370;51.986;4.666;2023-02-13T06:03:02;46.37;;;21.03;;
38615;SDS011;24370;51.986;4.666;2023-02-13T06:05:27;44.60;;;19.77;;
38615;SDS011;24370;51.986;4.666;2023-02-13T06:07:52;45.27;;;19.13;;
38615;SDS011;24370;51.986;4.666;2023-02-13T06:10:18;45.70;;;19.03;;
38615;SDS011;24370;51.986;4.666;2023-02-13T06:12:43;41.13;;;18.97;;
38615;SDS011;24370;51.986;4.666;2023-02-13T06:15:09;46.37;;;19.73;;
38615;SDS011;24370;51.986;4.666;2023-02-13T06:17:34;46.50;;;20.90;;
38615;SDS011;24370;51.986;4.666;2023-02-13T06:19:59;46.00;;;19.10;;
38615;SDS011;24370;51.986;4.666;2023-02-13T06:22:25;49.27;;;19.40;;
38615;SDS011;24370;51.986;4.666;2023-02-13T06:24:50;42.27;;;19.17;;
38615;SDS011;24370;51.986;4.666;2023-02-13T06:27:15;52.40;;;19.97;;
38615;SDS011;24370;51.986;4.666;2023-02-13T06:29:41;46.87;;;19.93;;
38615;SDS011;24370;51.986;4.666;2023-02-13T06:32:06;44.63;;;19.70;;
38615;SDS011;24370;51.986;4.666;2023-02-13T06:34:31;43.60;;;19.70;;
38615;SDS011;24370;51.986;4.666;2023-02-13T06:36:57;45.33;;;20.10;;
38615;SDS011;24370;51.986;4.666;2023-02-13T06:39:22;47.87;;;20.13;;
38615;SDS011;24370;51.986;4.666;2023-02-13T06:41:48;43.07;;;19.33;;
38615;SDS011;24370;51.986;4.666;2023-02-13T06:44:13;42.67;;;18.67;;
38615;SDS011;24370;51.986;4.666;2023-02-13T06:46:38;44.03;;;20.07;;
38615;SDS011;24370;51.986;4.666;2023-02-13T06:49:04;45.60;;;20.30;;
38615;SDS011;24370;51.986;4.666;2023-02-13T06:51:29;53.40;;;21.03;;
38615;SDS011;24370;51.986;4.666;2023-02-13T06:53:54;42.93;;;19.80;;
38615;SDS011;24370;51.986;4.666;2023-02-13T06:56:20;46.93;;;21.20;;
38615;SDS011;24370;51.986;4.666;2023-02-13T06:58:45;45.10;;;20.47;;
38615;SDS011;24370;51.986;4.666;2023-02-13T07:01:11;46.10;;;20.53;;
38615;SDS011;24370;51.986;4.666;2023-02-13T07:03:36;48.27;;;21.10;;
38615;SDS011;24370;51.986;4.666;2023-02-13T07:06:02;44.83;;;20.73;;
38615;SDS011;24370;51.986;4.666;2023-02-13T07:08:27;51.37;;;22.27;;
38615;SDS011;24370;51.986;4.666;2023-02-13T07:10:53;48.10;;;20.90;;
38615;SDS011;24370;51.986;4.666;2023-02-13T07:13:18;55.17;;;22.83;;
38615;SDS011;24370;51.986;4.666;2023-02-13T07:15:44;48.10;;;21.67;;
38615;SDS011;24370;51.986;4.666;2023-02-13T07:18:09;52.37;;;22.63;;
38615;SDS011;24370;51.986;4.666;2023-02-13T07:20:35;56.80;;;22.87;;
38615;SDS011;24370;51.986;4.666;2023-02-13T07:23:01;46.50;;;20.57;;
38615;SDS011;24370;51.986;4.666;2023-02-13T07:25:28;51.87;;;22.20;;
38615;SDS011;24370;51.986;4.666;2023-02-13T07:27:54;48.57;;;20.97;;
38615;SDS011;24370;51.986;4.666;2023-02-13T07:30:19;48.67;;;21.63;;
38615;SDS011;24370;51.986;4.666;2023-02-13T07:32:45;52.40;;;23.40;;
38615;SDS011;24370;51.986;4.666;2023-02-13T07:35:10;51.43;;;21.63;;
38615;SDS011;24370;51.986;4.666;2023-02-13T07:37:36;56.40;;;22.23;;
38615;SDS011;24370;51.986;4.666;2023-02-13T07:40:01;47.63;;;21.10;;
38615;SDS011;24370;51.986;4.666;2023-02-13T07:42:28;61.67;;;23.87;;
38615;SDS011;24370;51.986;4.666;2023-02-13T07:44:56;60.93;;;22.50;;
38615;SDS011;24370;51.986;4.666;2023-02-13T07:47:22;63.00;;;22.47;;
38615;SDS011;24370;51.986;4.666;2023-02-13T07:49:48;57.43;;;22.33;;
38615;SDS011;24370;51.986;4.666;2023-02-13T07:52:13;54.17;;;23.00;;
38615;SDS011;24370;51.986;4.666;2023-02-13T07:54:38;72.10;;;24.80;;
38615;SDS011;24370;51.986;4.666;2023-02-13T07:57:13;62.10;;;23.95;;
38615;SDS011;24370;51.986;4.666;2023-02-13T07:59:39;56.47;;;22.50;;
38615;SDS011;24370;51.986;4.666;2023-02-13T08:02:05;56.07;;;22.43;;
38615;SDS011;24370;51.986;4.666;2023-02-13T08:04:33;53.93;;;22.17;;
38615;SDS011;24370;51.986;4.666;2023-02-13T08:06:59;57.60;;;24.27;;
38615;SDS011;24370;51.986;4.666;2023-02-13T08:09:24;104.00;;;25.63;;
38615;SDS011;24370;51.986;4.666;2023-02-13T08:12:08;78.53;;;25.40;;
38615;SDS011;24370;51.986;4.666;2023-02-13T08:14:34;58.53;;;22.90;;
38615;SDS011;24370;51.986;4.666;2023-02-13T08:16:59;62.33;;;24.93;;
38615;SDS011;24370;51.986;4.666;2023-02-13T08:19:26;63.77;;;24.40;;
38615;SDS011;24370;51.986;4.666;2023-02-13T08:21:52;50.43;;;22.37;;
38615;SDS011;24370;51.986;4.666;2023-02-13T08:24:17;61.63;;;24.47;;
38615;SDS011;24370;51.986;4.666;2023-02-13T08:26:43;58.60;;;23.73;;
38615;SDS011;24370;51.986;4.666;2023-02-13T08:29:08;55.10;;;24.13;;
38615;SDS011;24370;51.986;4.666;2023-02-13T08:31:35;53.57;;;23.37;;
38615;SDS011;24370;51.986;4.666;2023-02-13T08:34:01;59.03;;;24.13;;
38615;SDS011;24370;51.986;4.666;2023-02-13T08:36:26;56.47;;;24.50;;
38615;SDS011;24370;51.986;4.666;2023-02-13T08:38:52;56.70;;;24.67;;
38615;SDS011;24370;51.986;4.666;2023-02-13T08:41:17;54.80;;;24.07;;
38615;SDS011;24370;51.986;4.666;2023-02-13T08:43:45;63.03;;;24.80;;
38615;SDS011;24370;51.986;4.666;2023-02-13T08:46:10;61.03;;;25.40;;
38615;SDS011;24370;51.986;4.666;2023-02-13T08:48:35;60.30;;;26.70;;
38615;SDS011;24370;51.986;4.666;2023-02-13T08:51:07;64.50;;;27.03;;
38615;SDS011;24370;51.986;4.666;2023-02-13T08:53:34;58.60;;;25.50;;
38615;SDS011;24370;51.986;4.666;2023-02-13T08:56:00;63.97;;;28.27;;
38615;SDS011;24370;51.986;4.666;2023-02-13T08:58:26;57.57;;;26.73;;
38615;SDS011;24370;51.986;4.666;2023-02-13T09:00:51;64.37;;;26.83;;
38615;SDS011;24370;51.986;4.666;2023-02-13T09:03:17;60.60;;;26.37;;
38615;SDS011;24370;51.986;4.666;2023-02-13T09:05:42;63.07;;;27.47;;
38615;SDS011;24370;51.986;4.666;2023-02-13T09:08:08;70.37;;;28.70;;
38615;SDS011;24370;51.986;4.666;2023-02-13T09:10:35;63.93;;;27.80;;
38615;SDS011;24370;51.986;4.666;2023-02-13T09:13:01;62.47;;;28.77;;
38615;SDS011;24370;51.986;4.666;2023-02-13T09:15:27;66.50;;;28.63;;
38615;SDS011;24370;51.986;4.666;2023-02-13T09:17:53;63.67;;;28.50;;
38615;SDS011;24370;51.986;4.666;2023-02-13T09:20:18;60.77;;;27.93;;
38615;SDS011;24370;51.986;4.666;2023-02-13T09:22:43;62.17;;;28.23;;
38615;SDS011;24370;51.986;4.666;2023-02-13T09:25:09;63.53;;;29.00;;
38615;SDS011;24370;51.986;4.666;2023-02-13T09:27:34;67.23;;;28.70;;
38615;SDS011;24370;51.986;4.666;2023-02-13T09:30:01;63.43;;;29.57;;
38615;SDS011;24370;51.986;4.666;2023-02-13T09:32:27;70.73;;;30.60;;
38615;SDS011;24370;51.986;4.666;2023-02-13T09:34:52;64.07;;;28.73;;
38615;SDS011;24370;51.986;4.666;2023-02-13T09:37:18;64.87;;;29.73;;
38615;SDS011;24370;51.986;4.666;2023-02-13T09:39:43;67.37;;;31.73;;
38615;SDS011;24370;51.986;4.666;2023-02-13T09:42:23;58.23;;;26.63;;
38615;SDS011;24370;51.986;4.666;2023-02-13T09:44:53;57.00;;;26.65;;
38615;SDS011;24370;51.986;4.666;2023-02-13T09:47:34;55.27;;;26.23;;
38615;SDS011;24370;51.986;4.666;2023-02-13T09:50:05;55.28;;;25.48;;
38615;SDS011;24370;51.986;4.666;2023-02-13T09:52:38;57.30;;;26.93;;
38615;SDS011;24370;51.986;4.666;2023-02-13T09:55:14;51.23;;;25.23;;
38615;SDS011;24370;51.986;4.666;2023-02-13T09:57:43;60.23;;;27.63;;
38615;SDS011;24370;51.986;4.666;2023-02-13T10:00:33;51.00;;;25.40;;
38615;SDS011;24370;51.986;4.666;2023-02-13T10:03:11;51.80;;;25.20;;
38615;SDS011;24370;51.986;4.666;2023-02-13T10:14:13;54.50;;;25.17;;
38615;SDS011;24370;51.986;4.666;2023-02-13T10:19:28;55.60;;;26.75;;
38615;SDS011;24370;51.986;4.666;2023-02-13T10:22:03;55.75;;;27.25;;
38615;SDS011;24370;51.986;4.666;2023-02-13T10:24:39;57.15;;;27.02;;
38615;SDS011;24370;51.986;4.666;2023-02-13T10:29:55;58.38;;;28.80;;
38615;SDS011;24370;51.986;4.666;2023-02-13T10:32:33;58.30;;;28.10;;
38615;SDS011;24370;51.986;4.666;2023-02-13T10:35:15;54.03;;;26.90;;
38615;SDS011;24370;51.986;4.666;2023-02-13T10:37:41;67.45;;;29.05;;
38615;SDS011;24370;51.986;4.666;2023-02-13T10:40:09;59.60;;;28.30;;
38615;SDS011;24370;51.986;4.666;2023-02-13T10:47:57;62.80;;;30.27;;
38615;SDS011;24370;51.986;4.666;2023-02-13T11:04:22;60.57;;;30.30;;
38615;SDS011;24370;51.986;4.666;2023-02-13T11:07:00;60.25;;;28.75;;
38615;SDS011;24370;51.986;4.666;2023-02-13T11:09:28;61.63;;;27.90;;
38615;SDS011;24370;51.986;4.666;2023-02-13T11:11:57;56.92;;;28.40;;
38615;SDS011;24370;51.986;4.666;2023-02-13T11:14:24;53.05;;;27.27;;
38615;SDS011;24370;51.986;4.666;2023-02-13T11:16:58;50.45;;;26.00;;
38615;SDS011;24370;51.986;4.666;2023-02-13T11:21:59;48.53;;;25.55;;
38615;SDS011;24370;51.986;4.666;2023-02-13T11:24:32;50.97;;;24.90;;
38615;SDS011;24370;51.986;4.666;2023-02-13T11:27:04;50.08;;;25.58;;
38615;SDS011;24370;51.986;4.666;2023-02-13T11:29:33;50.30;;;25.42;;
38615;SDS011;24370;51.986;4.666;2023-02-13T11:32:03;48.83;;;23.10;;
38615;SDS011;24370;51.986;4.666;2023-02-13T11:34:42;42.67;;;22.30;;
38615;SDS011;24370;51.986;4.666;2023-02-13T11:39:36;47.20;;;23.00;;
38615;SDS011;24370;51.986;4.666;2023-02-13T11:42:01;41.78;;;21.52;;
38615;SDS011;24370;51.986;4.666;2023-02-13T11:44:30;38.65;;;21.35;;
38615;SDS011;24370;51.986;4.666;2023-02-13T11:46:57;43.08;;;22.20;;
38615;SDS011;24370;51.986;4.666;2023-02-13T11:49:28;41.50;;;21.27;;
38615;SDS011;24370;51.986;4.666;2023-02-13T11:52:02;38.42;;;19.45;;
38615;SDS011;24370;51.986;4.666;2023-02-13T11:57:08;36.30;;;19.42;;
38615;SDS011;24370;51.986;4.666;2023-02-13T11:59:41;39.42;;;19.48;;
38615;SDS011;24370;51.986;4.666;2023-02-13T12:02:12;36.25;;;20.15;;
38615;SDS011;24370;51.986;4.666;2023-02-13T12:04:46;32.08;;;17.88;;
38615;SDS011;24370;51.986;4.666;2023-02-13T12:07:23;34.03;;;17.98;;
38615;SDS011;24370;51.986;4.666;2023-02-13T12:12:41;37.58;;;18.73;;
38615;SDS011;24370;51.986;4.666;2023-02-13T12:15:16;34.42;;;18.55;;
38615;SDS011;24370;51.986;4.666;2023-02-13T12:17:44;37.28;;;18.45;;
38615;SDS011;24370;51.986;4.666;2023-02-13T12:20:12;31.40;;;17.48;;
38615;SDS011;24370;51.986;4.666;2023-02-13T12:25:30;32.65;;;16.85;;
38615;SDS011;24370;51.986;4.666;2023-02-13T12:31:28;33.03;;;18.23;;
38615;SDS011;24370;51.986;4.666;2023-02-13T12:34:20;33.85;;;18.38;;
38615;SDS011;24370;51.986;4.666;2023-02-13T12:39:35;33.58;;;18.55;;
38615;SDS011;24370;51.986;4.666;2023-02-13T12:42:14;35.65;;;19.10;;
38615;SDS011;24370;51.986;4.666;2023-02-13T12:47:22;32.38;;;17.73;;
38615;SDS011;24370;51.986;4.666;2023-02-13T12:50:35;35.33;;;18.35;;
38615;SDS011;24370;51.986;4.666;2023-02-13T12:55:27;31.33;;;17.02;;
38615;SDS011;24370;51.986;4.666;2023-02-13T13:01:14;32.10;;;16.55;;
38615;SDS011;24370;51.986;4.666;2023-02-13T13:06:56;29.15;;;15.52;;
38615;SDS011;24370;51.986;4.666;2023-02-13T13:12:13;29.27;;;15.07;;
38615;SDS011;24370;51.986;4.666;2023-02-13T13:17:49;32.53;;;15.52;;
38615;SDS011;24370;51.986;4.666;2023-02-13T13:28:46;28.25;;;15.00;;
38615;SDS011;24370;51.986;4.666;2023-02-13T13:31:14;30.98;;;14.73;;
38615;SDS011;24370;51.986;4.666;2023-02-13T13:33:41;27.50;;;14.88;;
38615;SDS011;24370;51.986;4.666;2023-02-13T13:42:10;28.92;;;14.40;;
38615;SDS011;24370;51.986;4.666;2023-02-13T13:45:02;27.70;;;15.00;;
38615;SDS011;24370;51.986;4.666;2023-02-13T13:50:04;30.60;;;15.38;;
38615;SDS011;24370;51.986;4.666;2023-02-13T13:53:03;31.00;;;15.63;;
38615;SDS011;24370;51.986;4.666;2023-02-13T13:58:39;29.80;;;15.57;;
38615;SDS011;24370;51.986;4.666;2023-02-13T14:03:44;34.10;;;17.10;;
38615;SDS011;24370;51.986;4.666;2023-02-13T14:06:12;30.87;;;15.40;;
38615;SDS011;24370;51.986;4.666;2023-02-13T14:11:44;27.47;;;14.80;;
38615;SDS011;24370;51.986;4.666;2023-02-13T14:16:51;27.87;;;15.43;;
38615;SDS011;24370;51.986;4.666;2023-02-13T14:24:49;30.93;;;15.77;;
38615;SDS011;24370;51.986;4.666;2023-02-13T14:27:19;29.47;;;15.77;;
38615;SDS011;24370;51.986;4.666;2023-02-13T14:29:47;35.77;;;17.57;;
38615;SDS011;24370;51.986;4.666;2023-02-13T14:32:30;34.17;;;16.97;;
38615;SDS011;24370;51.986;4.666;2023-02-13T14:34:59;27.63;;;15.20;;
38615;SDS011;24370;51.986;4.666;2023-02-13T14:37:48;28.50;;;15.47;;
38615;SDS011;24370;51.986;4.666;2023-02-13T14:42:43;31.40;;;15.07;;
38615;SDS011;24370;51.986;4.666;2023-02-13T14:45:22;33.37;;;16.23;;
38615;SDS011;24370;51.986;4.666;2023-02-13T14:47:52;34.90;;;16.23;;
38615;SDS011;24370;51.986;4.666;2023-02-13T14:50:31;30.27;;;15.67;;
38615;SDS011;24370;51.986;4.666;2023-02-13T14:53:13;29.50;;;15.07;;
38615;SDS011;24370;51.986;4.666;2023-02-13T14:55:46;27.63;;;15.03;;
38615;SDS011;24370;51.986;4.666;2023-02-13T14:58:34;31.03;;;16.00;;
38615;SDS011;24370;51.986;4.666;2023-02-13T15:01:06;30.47;;;14.77;;
38615;SDS011;24370;51.986;4.666;2023-02-13T15:03:45;28.07;;;15.33;;
38615;SDS011;24370;51.986;4.666;2023-02-13T15:06:34;30.83;;;14.80;;
38615;SDS011;24370;51.986;4.666;2023-02-13T15:09:04;32.17;;;14.80;;
38615;SDS011;24370;51.986;4.666;2023-02-13T15:11:41;26.87;;;15.37;;
38615;SDS011;24370;51.986;4.666;2023-02-13T15:14:21;31.50;;;15.53;;
38615;SDS011;24370;51.986;4.666;2023-02-13T15:19:46;30.23;;;15.60;;
38615;SDS011;24370;51.986;4.666;2023-02-13T15:22:16;31.67;;;14.37;;
38615;SDS011;24370;51.986;4.666;2023-02-13T15:24:45;30.80;;;15.93;;
38615;SDS011;24370;51.986;4.666;2023-02-13T15:27:19;30.03;;;15.53;;
38615;SDS011;24370;51.986;4.666;2023-02-13T15:29:57;30.40;;;15.90;;
38615;SDS011;24370;51.986;4.666;2023-02-13T15:32:35;28.37;;;14.60;;
38615;SDS011;24370;51.986;4.666;2023-02-13T15:37:27;31.70;;;15.17;;
38615;SDS011;24370;51.986;4.666;2023-02-13T15:39:54;28.90;;;15.87;;
38615;SDS011;24370;51.986;4.666;2023-02-13T15:42:20;26.50;;;14.00;;
38615;SDS011;24370;51.986;4.666;2023-02-13T15:44:47;33.27;;;16.13;;
38615;SDS011;24370;51.986;4.666;2023-02-13T15:49:42;28.00;;;14.20;;
38615;SDS011;24370;51.986;4.666;2023-02-13T15:52:15;31.30;;;16.40;;
38615;SDS011;24370;51.986;4.666;2023-02-13T15:55:02;33.43;;;17.00;;
38615;SDS011;24370;51.986;4.666;2023-02-13T15:57:27;32.27;;;17.10;;
38615;SDS011;24370;51.986;4.666;2023-02-13T15:59:53;32.47;;;17.10;;
38615;SDS011;24370;51.986;4.666;2023-02-13T16:02:21;30.63;;;15.67;;
38615;SDS011;24370;51.986;4.666;2023-02-13T16:04:51;31.63;;;17.00;;
38615;SDS011;24370;51.986;4.666;2023-02-13T16:07:18;31.47;;;16.70;;
38615;SDS011;24370;51.986;4.666;2023-02-13T16:09:44;46.83;;;22.37;;
38615;SDS011;24370;51.986;4.666;2023-02-13T16:15:14;31.93;;;17.17;;
38615;SDS011;24370;51.986;4.666;2023-02-13T16:17:42;40.47;;;22.35;;
38615;SDS011;24370;51.986;4.666;2023-02-13T16:27:48;36.93;;;19.87;;
38615;SDS011;24370;51.986;4.666;2023-02-13T16:30:36;37.57;;;19.43;;
38615;SDS011;24370;51.986;4.666;2023-02-13T16:33:11;45.77;;;27.47;;
38615;SDS011;24370;51.986;4.666;2023-02-13T16:35:48;43.23;;;22.83;;
38615;SDS011;24370;51.986;4.666;2023-02-13T16:38:23;41.90;;;23.60;;
38615;SDS011;24370;51.986;4.666;2023-02-13T16:40:48;37.20;;;20.13;;
38615;SDS011;24370;51.986;4.666;2023-02-13T16:46:09;43.00;;;20.10;;
38615;SDS011;24370;51.986;4.666;2023-02-13T16:48:35;37.70;;;19.30;;
38615;SDS011;24370;51.986;4.666;2023-02-13T16:51:00;35.03;;;18.53;;
38615;SDS011;24370;51.986;4.666;2023-02-13T16:53:26;38.50;;;19.43;;
38615;SDS011;24370;51.986;4.666;2023-02-13T16:55:55;44.73;;;23.33;;
38615;SDS011;24370;51.986;4.666;2023-02-13T16:58:25;54.67;;;26.43;;
38615;SDS011;24370;51.986;4.666;2023-02-13T17:00:51;40.83;;;21.37;;
38615;SDS011;24370;51.986;4.666;2023-02-13T17:03:18;52.37;;;23.63;;
38615;SDS011;24370;51.986;4.666;2023-02-13T17:05:43;64.87;;;31.87;;
38615;SDS011;24370;51.986;4.666;2023-02-13T17:08:08;52.73;;;27.23;;
38615;SDS011;24370;51.986;4.666;2023-02-13T17:10:35;57.00;;;28.20;;
38615;SDS011;24370;51.986;4.666;2023-02-13T17:13:05;53.70;;;28.07;;
38615;SDS011;24370;51.986;4.666;2023-02-13T17:15:42;51.60;;;26.23;;
38615;SDS011;24370;51.986;4.666;2023-02-13T17:18:08;49.27;;;24.63;;
38615;SDS011;24370;51.986;4.666;2023-02-13T17:20:34;49.33;;;24.03;;
38615;SDS011;24370;51.986;4.666;2023-02-13T17:23:02;50.00;;;24.17;;
38615;SDS011;24370;51.986;4.666;2023-02-13T17:25:36;56.27;;;25.47;;